首页
METAR-TAF:

METAR-TAF

机场 :

仁川国际机场, 大韩民国

仁川國際機場

纬度: 37-28N, 经度: 126-27E, 海拔: 7米

当前天气观测

该预报发布于10分钟前的00:00 UTC
风速5节,风向东北
温度 -1°C
湿度 54%
气压 1027 hPa
能见度10公里或以上
1500米以下无云,无积雨云

METAR: RKSI 250000Z 04005KT CAVOK M01/M09 Q1027 NOSIG

时间: 09:10 (00:10 UTC)

预报

该预报发布于1小时和10分钟前的23:00 UTC
预报有效从25日的 00点(UTC)到 26日的 06点(UTC)
风速6节,风向
能见度10公里或以上
1500米以下无云,无积雨云
成为
从 25日的 05点(UTC)到 25日的 06点(UTC)
风速10节,风向西转西北
成为
从 25日的 12点(UTC)到 25日的 13点(UTC)
风速7节,风向
成为
从 26日的 01点(UTC)到 26日的 02点(UTC)
风速6节,风向东南

TAF: RKSI 242300Z 2500/2606 35006KT CAVOK TX05/2506Z TNM03/2521Z TX06/2606Z BECMG 2505/2506 29010KT BECMG 2512/2513 35007KT BECMG 2601/2602 14006KT

超过4000个机场的气象观测和天气预报(METAR&TAF报告)。

可查询的气象台以黄色和红色小点在地图上表示。

将鼠标移到小点上方,可查看气象台名称。

然后点击查看天气观测和预报。

如需切换地图:点击带黑十字的绿色按钮放大地图;点击带横线的绿色按钮缩小地图;或者点击绿色箭头查看邻近地区的地图。


METAR-TAF: